createdAt,value
2019-06-26T00:02:23.363Z,98283.55
2019-06-26T00:07:27.197Z,98291.00
2019-06-26T00:12:30.952Z,98292.21
2019-06-26T00:17:34.966Z,98290.16
2019-06-26T00:22:38.724Z,98290.84
2019-06-26T00:27:42.491Z,98295.45
2019-06-26T00:32:46.508Z,98301.93
2019-06-26T00:37:50.299Z,98300.00
2019-06-26T00:42:54.104Z,98292.45
2019-06-26T00:47:58.229Z,98290.98
2019-06-26T00:53:02.070Z,98289.02
2019-06-26T00:58:05.933Z,98302.17
2019-06-26T01:03:09.776Z,98300.98
2019-06-26T01:08:13.608Z,98300.09
2019-06-26T01:13:17.365Z,98294.33
2019-06-26T01:18:21.139Z,98298.15
2019-06-26T01:23:24.909Z,98297.32
2019-06-26T01:28:28.749Z,98296.13
2019-06-26T01:33:32.746Z,98294.17
2019-06-26T01:38:36.509Z,98291.48
2019-06-26T01:43:40.269Z,98299.73
2019-06-26T01:48:44.029Z,98295.06
2019-06-26T01:53:47.904Z,98300.21
2019-06-26T01:58:51.777Z,98293.28
2019-06-26T02:03:55.533Z,98297.82
2019-06-26T02:08:59.423Z,98301.50
2019-06-26T02:14:03.189Z,98298.30
2019-06-26T02:19:08.835Z,98298.06
2019-06-26T02:24:12.642Z,98303.82
2019-06-26T02:29:16.487Z,98302.17
2019-06-26T02:34:20.356Z,98304.55
2019-06-26T02:39:24.187Z,98310.09
2019-06-26T02:44:28.184Z,98310.78
2019-06-26T02:49:32.008Z,98310.64
2019-06-26T02:54:35.768Z,98315.76
2019-06-26T02:59:39.754Z,98317.04
2019-06-26T03:04:43.808Z,98313.73
2019-06-26T03:09:47.565Z,98316.41
2019-06-26T03:15:04.653Z,98322.66
2019-06-26T03:19:57.041Z,98324.25
2019-06-26T03:25:00.958Z,98318.66
2019-06-26T03:30:05.496Z,98322.73
2019-06-26T03:35:09.745Z,98328.59
2019-06-26T03:40:14.053Z,98318.29
2019-06-26T03:45:25.501Z,98327.69
2019-06-26T03:50:23.540Z,98328.44
2019-06-26T03:55:27.301Z,98320.88
2019-06-26T04:00:39.849Z,98330.49
2019-06-26T04:05:43.636Z,98332.44
2019-06-26T04:10:47.473Z,98333.92
2019-06-26T04:15:51.245Z,98334.25
2019-06-26T04:20:55.077Z,98332.86
2019-06-26T04:25:59.054Z,98336.20
2019-06-26T04:31:02.849Z,98329.19
2019-06-26T04:36:06.838Z,98328.28
2019-06-26T04:41:10.559Z,98319.45
2019-06-26T04:46:14.551Z,98320.60
2019-06-26T04:51:18.386Z,98322.67
2019-06-26T04:56:22.365Z,98329.28
2019-06-26T05:01:26.445Z,98324.86
2019-06-26T05:06:30.289Z,98323.96
2019-06-26T05:11:34.044Z,98320.59
2019-06-26T05:16:37.874Z,98312.20
2019-06-26T05:21:41.625Z,98313.90
2019-06-26T05:26:45.383Z,98316.95
2019-06-26T05:31:49.133Z,98318.70
2019-06-26T05:36:52.983Z,98326.22
2019-06-26T05:41:56.755Z,98326.45
2019-06-26T05:47:00.731Z,98325.61
2019-06-26T05:52:04.956Z,98328.55
2019-06-26T05:57:08.706Z,98328.72
2019-06-26T06:02:12.466Z,98329.28
2019-06-26T06:07:16.299Z,98333.28
2019-06-26T06:12:20.130Z,98338.85
2019-06-26T06:17:23.995Z,98341.73
2019-06-26T06:22:27.758Z,98348.03
2019-06-26T06:27:31.595Z,98342.31
2019-06-26T06:32:35.448Z,98354.50
2019-06-26T06:37:39.364Z,98350.86
2019-06-26T06:42:43.287Z,98349.05
2019-06-26T06:47:47.048Z,98352.14
2019-06-26T06:52:50.806Z,98358.80
2019-06-26T06:57:54.583Z,98365.41
2019-06-26T07:02:58.450Z,98366.72
2019-06-26T07:08:02.225Z,98366.95
2019-06-26T07:13:06.323Z,98372.70
2019-06-26T07:18:10.211Z,98365.16
2019-06-26T07:23:13.977Z,98380.81
2019-06-26T07:28:17.797Z,98376.77
2019-06-26T07:33:21.674Z,98380.13
2019-06-26T07:38:25.445Z,98387.88
2019-06-26T07:43:29.220Z,98389.28
2019-06-26T07:48:33.260Z,98378.82
2019-06-26T07:53:37.039Z,98379.84
2019-06-26T07:58:41.154Z,98387.86
2019-06-26T08:03:44.926Z,98387.66
2019-06-26T08:08:48.799Z,98388.77
2019-06-26T08:13:52.563Z,98390.84
2019-06-26T08:18:56.335Z,98390.75
2019-06-26T08:24:00.099Z,98387.48
2019-06-26T08:29:04.302Z,98387.32
2019-06-26T08:34:08.062Z,98395.84
2019-06-26T08:39:11.835Z,98396.36
2019-06-26T08:44:15.594Z,98398.55
2019-06-26T08:49:25.623Z,98395.16
2019-06-26T08:54:24.897Z,98394.03
2019-06-26T08:59:28.699Z,98397.09
2019-06-26T09:04:32.458Z,98392.86
2019-06-26T09:09:36.274Z,98391.38
2019-06-26T09:14:40.054Z,98394.60
2019-06-26T09:19:43.787Z,98394.55
2019-06-26T09:24:47.639Z,98386.88
2019-06-26T09:29:51.638Z,98393.09
2019-06-26T09:34:55.401Z,98383.05
2019-06-26T09:39:59.158Z,98380.43
2019-06-26T09:45:03.087Z,98385.87
2019-06-26T09:50:07.325Z,98371.36
2019-06-26T09:55:11.433Z,98375.38
2019-06-26T10:00:17.042Z,98384.92
2019-06-26T10:05:20.980Z,98380.69
2019-06-26T10:10:24.899Z,98382.80
2019-06-26T10:15:28.652Z,98378.00
2019-06-26T10:20:32.455Z,98372.25
2019-06-26T10:25:36.181Z,98372.73
2019-06-26T10:30:40.079Z,98370.19
2019-06-26T10:35:44.217Z,98366.36
2019-06-26T10:40:47.936Z,98370.92
2019-06-26T10:45:51.762Z,98370.60
2019-06-26T10:50:58.933Z,98370.58
2019-06-26T10:56:01.442Z,98368.14
2019-06-26T11:01:05.448Z,98364.86
2019-06-26T11:06:09.204Z,98363.92
2019-06-26T11:11:13.031Z,98353.52
2019-06-26T11:16:16.790Z,98358.12
2019-06-26T11:21:20.607Z,98354.19
2019-06-26T11:26:24.435Z,98350.19
2019-06-26T11:31:28.458Z,98344.95
2019-06-26T11:36:32.470Z,98330.83
2019-06-26T11:41:36.218Z,98334.13
2019-06-26T11:46:39.977Z,98329.47
2019-06-26T11:51:43.752Z,98327.88
2019-06-26T11:56:47.550Z,98317.70
2019-06-26T12:01:51.384Z,98316.91
2019-06-26T12:06:55.293Z,98319.73
2019-06-26T12:11:59.123Z,98310.40
2019-06-26T12:17:02.878Z,98302.42
2019-06-26T12:22:06.971Z,98301.39
2019-06-26T12:27:11.103Z,98295.20
2019-06-26T12:32:14.948Z,98296.19
2019-06-26T12:37:18.965Z,98289.75
2019-06-26T12:42:22.724Z,98291.13
2019-06-26T12:47:26.490Z,98288.66
2019-06-26T12:52:30.588Z,98279.41
2019-06-26T12:57:34.798Z,98272.75
2019-06-26T13:02:38.772Z,98277.59
2019-06-26T13:07:42.613Z,98272.02
2019-06-26T13:12:46.372Z,98267.03
2019-06-26T13:17:50.162Z,98268.45
2019-06-26T13:22:53.902Z,98262.33
2019-06-26T13:27:58.245Z,98262.70
2019-06-26T13:33:02.024Z,98258.91
2019-06-26T13:38:05.976Z,98255.52
2019-06-26T13:43:09.735Z,98254.36
2019-06-26T13:48:13.637Z,98255.95
2019-06-26T13:53:17.396Z,98253.86
2019-06-26T13:58:21.177Z,98253.53
2019-06-26T14:03:24.927Z,98250.22
2019-06-26T14:08:32.663Z,98242.00
2019-06-26T14:13:34.496Z,98235.66
2019-06-26T14:18:38.562Z,98231.65
2019-06-26T14:23:42.324Z,98218.84
2019-06-26T14:28:46.099Z,98222.55
2019-06-26T14:33:49.865Z,98227.58
2019-06-26T14:38:53.615Z,98216.45
2019-06-26T14:43:57.755Z,98211.20
2019-06-26T14:49:01.484Z,98209.13
2019-06-26T14:54:05.263Z,98201.25
2019-06-26T14:59:09.178Z,98202.31
2019-06-26T15:04:12.936Z,98189.98
2019-06-26T15:09:16.944Z,98185.56
2019-06-26T15:14:20.798Z,98186.36
2019-06-26T15:19:24.624Z,98181.52
2019-06-26T15:24:28.625Z,98173.91
2019-06-26T15:29:32.421Z,98173.41
2019-06-26T15:34:36.213Z,98169.44
2019-06-26T15:39:40.192Z,98159.98
2019-06-26T15:44:43.963Z,98157.39
2019-06-26T15:49:48.522Z,98152.52
2019-06-26T15:54:52.284Z,98146.28
2019-06-26T15:59:56.052Z,98142.01
2019-06-26T16:04:59.846Z,98146.85
2019-06-26T16:10:03.835Z,98144.91
2019-06-26T16:15:07.864Z,98139.41
2019-06-26T16:20:12.108Z,98142.72
2019-06-26T16:25:16.429Z,98137.62
2019-06-26T16:30:20.375Z,98140.53
2019-06-26T16:35:24.286Z,98138.97
2019-06-26T16:40:28.074Z,98132.25
2019-06-26T16:45:31.917Z,98133.36
2019-06-26T16:50:35.676Z,98130.59
2019-06-26T16:55:39.513Z,98138.98
2019-06-26T17:00:43.378Z,98124.62
2019-06-26T17:05:47.348Z,98117.54
2019-06-26T17:10:51.207Z,98120.42
2019-06-26T17:15:54.974Z,98118.80
2019-06-26T17:20:58.889Z,98113.04
2019-06-26T17:26:02.919Z,98121.75
2019-06-26T17:31:06.769Z,98121.13
2019-06-26T17:36:10.518Z,98119.42
2019-06-26T17:41:14.276Z,98120.89
2019-06-26T17:46:18.046Z,98112.16
2019-06-26T17:51:21.815Z,98112.58
2019-06-26T17:56:25.587Z,98110.52
2019-06-26T18:01:29.440Z,98115.85
2019-06-26T18:06:33.202Z,98121.02
2019-06-26T18:11:37.121Z,98117.92
2019-06-26T18:16:41.181Z,98130.84
2019-06-26T18:21:44.941Z,98128.81
2019-06-26T18:26:49.076Z,98126.09
2019-06-26T18:31:52.908Z,98130.65
2019-06-26T18:36:56.680Z,98136.42
2019-06-26T18:42:00.527Z,98139.20
2019-06-26T18:47:04.450Z,98141.55
2019-06-26T18:52:08.445Z,98144.78
2019-06-26T18:57:12.310Z,98142.66
2019-06-26T19:02:16.071Z,98147.38
2019-06-26T19:07:19.837Z,98149.74
2019-06-26T19:12:23.608Z,98141.33
2019-06-26T19:17:27.712Z,98147.21
2019-06-26T19:22:31.904Z,98156.18
2019-06-26T19:27:35.864Z,98152.14
2019-06-26T19:32:40.114Z,98150.08
2019-06-26T19:37:43.881Z,98157.30
2019-06-26T19:42:47.716Z,98162.02
2019-06-26T19:47:51.779Z,98162.84
2019-06-26T19:52:56.865Z,98171.86
2019-06-26T19:58:07.960Z,98173.20
2019-06-26T20:03:11.237Z,98174.02
2019-06-26T20:08:16.112Z,98175.28
2019-06-26T20:13:19.919Z,98181.47
2019-06-26T20:18:23.677Z,98186.53
2019-06-26T20:23:27.676Z,98182.84
2019-06-26T20:28:31.471Z,98184.06
2019-06-26T20:33:35.450Z,98186.06
2019-06-26T20:38:39.452Z,98194.00
2019-06-26T20:43:43.289Z,98194.61
2019-06-26T20:48:47.096Z,98187.05
2019-06-26T20:53:50.886Z,98185.16
2019-06-26T20:58:54.662Z,98184.40
2019-06-26T21:03:58.424Z,98189.34
2019-06-26T21:09:02.185Z,98189.35
2019-06-26T21:14:06.029Z,98198.11
2019-06-26T21:19:10.031Z,98193.52
2019-06-26T21:24:13.783Z,98195.73
2019-06-26T21:29:17.812Z,98199.86
2019-06-26T21:34:21.579Z,98202.56
2019-06-26T21:39:25.373Z,98197.97
2019-06-26T21:44:29.102Z,98196.31
2019-06-26T21:49:32.870Z,98199.05
2019-06-26T21:54:36.770Z,98202.87
2019-06-26T21:59:40.625Z,98207.22
2019-06-26T22:04:44.482Z,98214.83
2019-06-26T22:09:48.266Z,98208.31
2019-06-26T22:14:52.026Z,98206.95
2019-06-26T22:19:56.061Z,98201.77
2019-06-26T22:24:59.822Z,98207.15
2019-06-26T22:30:03.856Z,98216.05
2019-06-26T22:35:09.683Z,98218.77
2019-06-26T22:40:13.697Z,98216.80
2019-06-26T22:45:17.813Z,98218.12
2019-06-26T22:50:21.720Z,98215.94
2019-06-26T22:55:25.485Z,98218.59
2019-06-26T23:00:29.271Z,98209.05
2019-06-26T23:05:33.174Z,98214.12
2019-06-26T23:10:37.078Z,98213.23
2019-06-26T23:15:40.945Z,98215.66
2019-06-26T23:20:44.712Z,98214.52
2019-06-26T23:25:48.543Z,98214.76
2019-06-26T23:30:52.301Z,98211.74
2019-06-26T23:35:56.315Z,98210.63
2019-06-26T23:41:00.095Z,98208.64
2019-06-26T23:46:03.949Z,98203.66
2019-06-26T23:51:07.943Z,98206.29
2019-06-26T23:56:11.774Z,98205.98
